sensor_id;sensor_type;location;lat;lon;timestamp;pressure;altitude;pressure_sealevel;temperature;humidity
15558;BME280;7880;50.110;9.372;2023-02-17T00:01:09;6.877142228279263;;;6.937;100.0
15558;BME280;7880;50.110;9.372;2023-02-17T00:06:11;6.8368055046536025;;;6.875;100.0
15558;BME280;7880;50.110;9.372;2023-02-17T00:11:17;6.781342540081823;;;6.812;100.0
15558;BME280;7880;50.110;9.372;2023-02-17T00:16:28;6.735963777080178;;;6.75;100.0
15558;BME280;7880;50.110;9.372;2023-02-17T00:21:29;6.725879610725679;;;6.75;100.0
15558;BME280;7880;50.110;9.372;2023-02-17T00:26:37;6.705711281509139;;;6.75;100.0
15558;BME280;7880;50.110;9.372;2023-02-17T00:31:46;6.7006691999326;;;6.75;100.0
15558;BME280;7880;50.110;9.372;2023-02-17T00:36:40;6.725879610725679;;;6.75;100.0
15558;BME280;7880;50.110;9.372;2023-02-17T00:41:44;6.761174198059598;;;6.75;100.0
15558;BME280;7880;50.110;9.372;2023-02-17T00:46:47;6.801510886760662;;;6.875;100.0
15558;BME280;7880;50.110;9.372;2023-02-17T00:51:52;6.872100136807421;;;6.937;100.0
15558;BME280;7880;50.110;9.372;2023-02-17T00:56:57;6.897310597077012;;;7.0;100.0
15558;BME280;7880;50.110;9.372;2023-02-17T01:02:00;6.8922685044410175;;;7.0;100.0
15558;BME280;7880;50.110;9.372;2023-02-17T01:07:03;6.877142228279263;;;7.0;100.0
15558;BME280;7880;50.110;9.372;2023-02-17T01:12:21;6.862015954736853;;;6.937;100.0
15558;BME280;7880;50.110;9.372;2023-02-17T01:17:16;6.872100136807421;;;6.937;100.0
15558;BME280;7880;50.110;9.372;2023-02-17T01:22:19;6.8922685044410175;;;7.0;100.0
15558;BME280;7880;50.110;9.372;2023-02-17T01:27:20;6.882184320042143;;;7.0;100.0
15558;BME280;7880;50.110;9.372;2023-02-17T01:32:25;6.897310597077012;;;7.0;100.0
15558;BME280;7880;50.110;9.372;2023-02-17T01:37:31;6.862015954736853;;;7.0;100.0
15558;BME280;7880;50.110;9.372;2023-02-17T01:42:34;6.897310597077012;;;7.0;100.0
15558;BME280;7880;50.110;9.372;2023-02-17T01:47:44;6.92252106462256;;;7.0;100.0
15558;BME280;7880;50.110;9.372;2023-02-17T01:52:45;6.932605253678048;;;7.062;100.0
15558;BME280;7880;50.110;9.372;2023-02-17T01:57:50;6.897310597077012;;;7.0;100.0
15558;BME280;7880;50.110;9.372;2023-02-17T02:02:55;6.841847594088176;;;6.937;100.0
15558;BME280;7880;50.110;9.372;2023-02-17T02:07:05;6.801510886760662;;;6.875;100.0
15558;BME280;7880;50.110;9.372;2023-02-17T02:12:16;6.81159506184631;;;6.875;100.0
15558;BME280;7880;50.110;9.372;2023-02-17T02:17:27;6.816637149825692;;;6.875;100.0
15558;BME280;7880;50.110;9.372;2023-02-17T02:22:27;6.766216283128597;;;6.875;100.0
15558;BME280;7880;50.110;9.372;2023-02-17T02:27:30;6.831763415510068;;;6.937;100.0
15558;BME280;7880;50.110;9.372;2023-02-17T02:32:46;6.806552974157967;;;6.875;100.0
15558;BME280;7880;50.110;9.372;2023-02-17T02:37:33;6.826721326657571;;;6.937;100.0
15558;BME280;7880;50.110;9.372;2023-02-17T02:42:34;6.851931773830438;;;6.937;100.0
15558;BME280;7880;50.110;9.372;2023-02-17T02:47:43;6.867058045626618;;;6.937;100.0
15558;BME280;7880;50.110;9.372;2023-02-17T02:52:50;6.882184320042143;;;6.937;100.0
15558;BME280;7880;50.110;9.372;2023-02-17T02:57:52;6.897310597077012;;;7.0;100.0
15558;BME280;7880;50.110;9.372;2023-02-17T03:03:02;6.932605253678048;;;7.062;100.0
15558;BME280;7880;50.110;9.372;2023-02-17T03:08:14;6.92252106462256;;;7.062;100.0
15558;BME280;7880;50.110;9.372;2023-02-17T03:13:05;6.947731539444066;;;7.062;100.0
15558;BME280;7880;50.110;9.372;2023-02-17T03:18:08;6.97294202154153;;;7.062;100.0
15558;BME280;7880;50.110;9.372;2023-02-17T03:23:12;6.952773635281483;;;7.062;100.0
15558;BME280;7880;50.110;9.372;2023-02-17T03:28:18;6.932605253678048;;;7.062;100.0
15558;BME280;7880;50.110;9.372;2023-02-17T03:33:21;6.947731539444066;;;7.062;100.0
15558;BME280;7880;50.110;9.372;2023-02-17T03:38:25;6.988068314292468;;;7.125;100.0
15558;BME280;7880;50.110;9.372;2023-02-17T03:43:28;6.983026216417784;;;7.125;100.0
15558;BME280;7880;50.110;9.372;2023-02-17T03:48:32;7.02336300756433;;;7.125;100.0
15558;BME280;7880;50.110;9.372;2023-02-17T03:53:37;7.068741919868626;;;7.187;100.0
15558;BME280;7880;50.110;9.372;2023-02-17T03:58:41;7.134289279259974;;;7.25;100.0
15558;BME280;7880;50.110;9.372;2023-02-17T04:03:44;7.124205066921422;;;7.25;100.0
15558;BME280;7880;50.110;9.372;2023-02-17T04:08:48;7.189752467931248;;;7.312;100.0
15558;BME280;7880;50.110;9.372;2023-02-17T04:13:55;7.174626140255714;;;7.312;100.0
15558;BME280;7880;50.110;9.372;2023-02-17T04:18:57;7.174626140255714;;;7.312;100.0
15558;BME280;7880;50.110;9.372;2023-02-17T04:24:00;7.290594719373621;;;7.437;100.0
15558;BME280;7880;50.110;9.372;2023-02-17T04:29:04;7.225047242693836;;;7.375;100.0
15558;BME280;7880;50.110;9.372;2023-02-17T04:34:08;7.245215691818157;;;7.375;100.0
15558;BME280;7880;50.110;9.372;2023-02-17T04:39:13;7.1695840316126125;;;7.312;100.0
15558;BME280;7880;50.110;9.372;2023-02-17T04:44:16;7.154457707429538;;;7.25;100.0
15558;BME280;7880;50.110;9.372;2023-02-17T04:49:29;7.189752467931248;;;7.312;100.0
15558;BME280;7880;50.110;9.372;2023-02-17T04:54:24;7.194794577738503;;;7.312;100.0
15558;BME280;7880;50.110;9.372;2023-02-17T04:59:28;7.209920908906497;;;7.312;100.0
15558;BME280;7880;50.110;9.372;2023-02-17T05:04:31;7.265384145599091;;;7.375;100.0
15558;BME280;7880;50.110;9.372;2023-02-17T05:09:35;7.275468374235788;;;7.437;100.0
15558;BME280;7880;50.110;9.372;2023-02-17T05:14:38;7.265384145599091;;;7.375;100.0
15558;BME280;7880;50.110;9.372;2023-02-17T05:19:43;7.295636835001642;;;7.437;100.0
15558;BME280;7880;50.110;9.372;2023-02-17T05:24:47;7.341015888750553;;;7.437;100.0
15558;BME280;7880;50.110;9.372;2023-02-17T05:29:53;7.315805300424108;;;7.437;100.0
15558;BME280;7880;50.110;9.372;2023-02-17T05:35:03;7.305721067130799;;;7.437;100.0
15558;BME280;7880;50.110;9.372;2023-02-17T05:39:59;7.325889534881571;;;7.437;100.0
15558;BME280;7880;50.110;9.372;2023-02-17T05:45:08;7.295636835001642;;;7.375;100.0
15558;BME280;7880;50.110;9.372;2023-02-17T05:50:09;7.300678950920701;;;7.375;100.0
15558;BME280;7880;50.110;9.372;2023-02-17T05:55:14;7.305721067130799;;;7.375;100.0
15558;BME280;7880;50.110;9.372;2023-02-17T06:00:22;7.315805300424108;;;7.375;100.0
15558;BME280;7880;50.110;9.372;2023-02-17T06:05:22;7.310763183631934;;;7.437;100.0
15558;BME280;7880;50.110;9.372;2023-02-17T06:10:25;7.35614224523888;;;7.437;100.0
15558;BME280;7880;50.110;9.372;2023-02-17T06:15:34;7.3763107246311845;;;7.437;100.0
15558;BME280;7880;50.110;9.372;2023-02-17T06:20:33;7.396479208680103;;;7.5;100.0
15558;BME280;7880;50.110;9.372;2023-02-17T06:25:50;7.371268604346551;;;7.437;100.0
15558;BME280;7880;50.110;9.372;2023-02-17T06:30:42;7.401521330419928;;;7.5;100.0
15558;BME280;7880;50.110;9.372;2023-02-17T06:35:57;7.431774066970684;;;7.562;100.0
15558;BME280;7880;50.110;9.372;2023-02-17T06:41:07;7.406563452450792;;;7.5;100.0
15558;BME280;7880;50.110;9.372;2023-02-17T06:46:08;7.426731943484628;;;7.5;100.0
15558;BME280;7880;50.110;9.372;2023-02-17T06:51:09;7.930945732729742;;;7.937;100.0
15558;BME280;7880;50.110;9.372;2023-02-17T06:56:13;7.577995774667943;;;7.687;100.0
15558;BME280;7880;50.110;9.372;2023-02-17T07:01:34;7.59816430528299;;;7.687;100.0
15558;BME280;7880;50.110;9.372;2023-02-17T07:07:15;7.628417109936708;;;7.75;100.0
15558;BME280;7880;50.110;9.372;2023-02-17T07:12:05;7.59312217219267;;;7.687;100.0
15558;BME280;7880;50.110;9.372;2023-02-17T07:17:10;7.59816430528299;;;7.687;100.0
15558;BME280;7880;50.110;9.372;2023-02-17T07:22:14;7.613290706300177;;;7.75;100.0
15558;BME280;7880;50.110;9.372;2023-02-17T07:27:18;7.628417109936708;;;7.75;100.0
15558;BME280;7880;50.110;9.372;2023-02-17T07:32:26;7.663712061941624;;;7.75;100.0
15558;BME280;7880;50.110;9.372;2023-02-17T07:37:29;7.658669925067807;;;7.75;100.0
15558;BME280;7880;50.110;9.372;2023-02-17T07:42:36;7.719175586762139;;;7.812;100.0
15558;BME280;7880;50.110;9.372;2023-02-17T07:47:46;7.7242177271284165;;;7.812;100.0
15558;BME280;7880;50.110;9.372;2023-02-17T07:52:45;7.744386291503906;;;7.875;100.0
15558;BME280;7880;50.110;9.372;2023-02-17T07:57:48;7.759512717841426;;;7.875;100.0
15558;BME280;7880;50.110;9.372;2023-02-17T08:02:52;7.820018449384952;;;7.937;100.0
15558;BME280;7880;50.110;9.372;2023-02-17T08:14:55;7.880524222837994;;;8.0;100.0
15558;BME280;7880;50.110;9.372;2023-02-17T08:19:56;7.865397775545716;;;8.0;100.0
15558;BME280;7880;50.110;9.372;2023-02-17T08:25:00;7.890608522488037;;;8.0;100.0
15558;BME280;7880;50.110;9.372;2023-02-17T08:30:09;7.930945732729742;;;8.062;100.0
15558;BME280;7880;50.110;9.372;2023-02-17T08:35:15;7.915819276706316;;;8.062;100.0
15558;BME280;7880;50.110;9.372;2023-02-17T08:40:18;7.951114344835514;;;8.062;100.0
15558;BME280;7880;50.110;9.372;2023-02-17T08:45:33;7.951114344835514;;;8.062;100.0
15558;BME280;7880;50.110;9.372;2023-02-17T08:50:23;7.971282961597899;;;8.062;100.0
15558;BME280;7880;50.110;9.372;2023-02-17T08:55:25;7.971282961597899;;;8.125;100.0
15558;BME280;7880;50.110;9.372;2023-02-17T09:00:28;7.971282961597899;;;8.062;100.0
15558;BME280;7880;50.110;9.372;2023-02-17T09:05:32;7.991451583016897;;;8.062;100.0
15558;BME280;7880;50.110;9.372;2023-02-17T09:10:38;7.981367271725321;;;8.125;100.0
15558;BME280;7880;50.110;9.372;2023-02-17T09:15:41;7.991451583016897;;;8.062;100.0
15558;BME280;7880;50.110;9.372;2023-02-17T09:20:48;7.96119865263463;;;8.062;100.0
15558;BME280;7880;50.110;9.372;2023-02-17T09:26:00;7.951114344835514;;;8.062;100.0
15558;BME280;7880;50.110;9.372;2023-02-17T09:30:55;8.006578052137048;;;8.062;100.0
15558;BME280;7880;50.110;9.372;2023-02-17T09:36:01;8.016662366339006;;;8.062;100.0
15558;BME280;7880;50.110;9.372;2023-02-17T09:41:08;8.021704523876542;;;8.125;100.0
15558;BME280;7880;50.110;9.372;2023-02-17T09:46:16;8.031788839824731;;;8.125;100.0
15558;BME280;7880;50.110;9.372;2023-02-17T09:51:18;8.021704523876542;;;8.125;100.0
15558;BME280;7880;50.110;9.372;2023-02-17T09:56:17;8.051957475213566;;;8.125;100.0
15558;BME280;7880;50.110;9.372;2023-02-17T10:01:28;8.082210437027971;;;8.187;100.0
15558;BME280;7880;50.110;9.372;2023-02-17T10:06:27;8.102379084058338;;;8.187;100.0
15558;BME280;7880;50.110;9.372;2023-02-17T10:11:36;8.092294759961078;;;8.187;100.0
15558;BME280;7880;50.110;9.372;2023-02-17T10:16:44;8.12254773574532;;;8.25;100.0
15558;BME280;7880;50.110;9.372;2023-02-17T10:21:46;8.142716392088914;;;8.25;100.0
15558;BME280;7880;50.110;9.372;2023-02-17T10:26:52;8.15280072200694;;;8.25;100.0
15558;BME280;7880;50.110;9.372;2023-02-17T10:31:56;8.188095885887742;;;8.25;100.0
15558;BME280;7880;50.110;9.372;2023-02-17T10:36:56;8.198180221044458;;;8.312;100.0
15558;BME280;7880;50.110;9.372;2023-02-17T10:42:05;8.21330672596232;;;8.312;100.0
15558;BME280;7880;50.110;9.372;2023-02-17T10:47:09;8.233475403260673;;;8.375;100.0
15558;BME280;7880;50.110;9.372;2023-02-17T10:52:12;8.238517573312857;;;8.312;100.0
15558;BME280;7880;50.110;9.372;2023-02-17T10:57:16;8.283897116879235;;;8.375;100.0
15558;BME280;7880;50.110;9.372;2023-02-17T11:02:32;8.273812771827215;;;8.375;100.0
15558;BME280;7880;50.110;9.372;2023-02-17T11:07:25;8.31415015902021;;;8.437;100.0
15558;BME280;7880;50.110;9.372;2023-02-17T11:12:27;8.334318859601627;;;8.437;100.0
15558;BME280;7880;50.110;9.372;2023-02-17T11:17:35;8.354487564839655;;;8.437;100.0
15558;BME280;7880;50.110;9.372;2023-02-17T11:22:37;8.40490934830741;;;8.437;100.0
15558;BME280;7880;50.110;9.372;2023-02-17T11:27:37;8.420035889022984;;;8.5;100.0
15558;BME280;7880;50.110;9.372;2023-02-17T11:32:40;8.435162432357902;;;8.5;100.0
15558;BME280;7880;50.110;9.372;2023-02-17T11:37:47;8.455331160878995;;;8.562;100.0
15558;BME280;7880;50.110;9.372;2023-02-17T11:42:56;8.450288978312164;;;8.562;100.0
15558;BME280;7880;50.110;9.372;2023-02-17T11:48:03;8.495668631891022;;;8.562;100.0
15558;BME280;7880;50.110;9.372;2023-02-17T11:53:06;8.52592174737365;;;8.625;100.0
15558;BME280;7880;50.110;9.372;2023-02-17T11:58:15;8.611638964805753;;;8.687;100.0
15558;BME280;7880;50.110;9.372;2023-02-17T12:03:33;8.687271873565624;;;8.75;100.0
15558;BME280;7880;50.110;9.372;2023-02-17T12:08:21;8.783073652000166;;;8.875;100.0
15558;BME280;7880;50.110;9.372;2023-02-17T12:13:31;8.91417099274695;;;9.0;100.0
15558;BME280;7880;50.110;9.372;2023-02-17T12:17:44;8.949466464255238;;;9.062;100.0
15558;BME280;7880;50.110;9.372;2023-02-17T12:22:48;9.025099665508606;;;9.125;100.0
15558;BME280;7880;50.110;9.372;2023-02-17T12:27:58;9.085606273659504;;;9.187;100.0
15558;BME280;7880;50.110;9.372;2023-02-17T12:33:13;9.085606273659504;;;9.25;100.0
15558;BME280;7880;50.110;9.372;2023-02-17T12:38:08;9.100732932245592;;;9.187;100.0
15558;BME280;7880;50.110;9.372;2023-02-17T12:43:07;9.110817372758174;;;9.187;100.0
15558;BME280;7880;50.110;9.372;2023-02-17T12:48:19;9.1360284791328;;;9.25;100.0
15558;BME280;7880;50.110;9.372;2023-02-17T12:53:18;9.110817372758174;;;9.25;100.0
15558;BME280;7880;50.110;9.372;2023-02-17T12:58:32;9.1360284791328;;;9.25;100.0
15558;BME280;7880;50.110;9.372;2023-02-17T13:03:21;9.14611292371992;;;9.25;100.0
15558;BME280;7880;50.110;9.372;2023-02-17T13:08:29;9.181408488942543;;;9.312;100.0
15558;BME280;7880;50.110;9.372;2023-02-17T13:13:34;9.221746295230696;;;9.312;100.0
15558;BME280;7880;50.110;9.372;2023-02-17T13:18:38;9.29737973222509;;;9.437;100.0
15558;BME280;7880;50.110;9.372;2023-02-17T13:23:42;9.362928763922536;;;9.5;100.0
15558;BME280;7880;50.110;9.372;2023-02-17T13:28:46;9.378055470529944;;;9.5;100.0
15558;BME280;7880;50.110;9.372;2023-02-17T13:33:52;9.383097706647822;;;9.5;100.0
15558;BME280;7880;50.110;9.372;2023-02-17T13:38:59;9.45368904285715;;;9.562;100.0
15558;BME280;7880;50.110;9.372;2023-02-17T13:43:58;9.423435606068233;;;9.562;100.0
15558;BME280;7880;50.110;9.372;2023-02-17T13:49:05;9.468815765180626;;;9.562;100.0
15558;BME280;7880;50.110;9.372;2023-02-17T13:54:11;9.473858006537194;;;9.562;100.0
15558;BME280;7880;50.110;9.372;2023-02-17T13:59:15;9.49906921768561;;;9.625;100.0
15558;BME280;7880;50.110;9.372;2023-02-17T14:04:20;9.443604562763358;;;9.562;100.0
15558;BME280;7880;50.110;9.372;2023-02-17T14:09:29;9.504111460788408;;;9.625;100.0
15558;BME280;7880;50.110;9.372;2023-02-17T14:14:28;9.544449416088174;;;9.687;100.0
15558;BME280;7880;50.110;9.372;2023-02-17T14:19:41;9.549491661810317;;;9.687;100.0
15558;BME280;7880;50.110;9.372;2023-02-17T14:24:37;9.58478739001439;;;9.687;100.0
15558;BME280;7880;50.110;9.372;2023-02-17T14:29:42;9.524280436109985;;;9.625;100.0
15558;BME280;7880;50.110;9.372;2023-02-17T14:34:45;9.539407170657068;;;9.625;100.0
15558;BME280;7880;50.110;9.372;2023-02-17T14:39:49;9.594871886406327;;;9.687;100.0
15558;BME280;7880;50.110;9.372;2023-02-17T14:44:55;9.705801423551748;;;9.812;100.0
15558;BME280;7880;50.110;9.372;2023-02-17T14:49:58;9.569660647609272;;;9.687;100.0
15558;BME280;7880;50.110;9.372;2023-02-17T14:55:12;9.736054958129534;;;9.812;100.0
15558;BME280;7880;50.110;9.372;2023-02-17T15:00:12;9.630167632945813;;;9.75;100.0
15558;BME280;7880;50.110;9.372;2023-02-17T15:05:14;9.569660647609272;;;9.687;100.0
15558;BME280;7880;50.110;9.372;2023-02-17T15:10:59;9.564618400722974;;;9.687;100.0
15558;BME280;7880;50.110;9.372;2023-02-17T15:16:01;9.574702894786606;;;9.687;100.0
15558;BME280;7880;50.110;9.372;2023-02-17T15:21:17;9.60999863317702;;;9.687;100.0
15558;BME280;7880;50.110;9.372;2023-02-17T15:26:10;9.61504088268266;;;9.75;100.0
15558;BME280;7880;50.110;9.372;2023-02-17T15:31:15;9.630167632945813;;;9.75;100.0
15558;BME280;7880;50.110;9.372;2023-02-17T15:36:20;9.65033663737122;;;9.75;100.0
15558;BME280;7880;50.110;9.372;2023-02-17T15:41:23;9.695716914354126;;;9.812;100.0
15558;BME280;7880;50.110;9.372;2023-02-17T15:46:29;9.65033663737122;;;9.75;100.0
15558;BME280;7880;50.110;9.372;2023-02-17T15:51:29;9.67554789945134;;;9.812;100.0
15558;BME280;7880;50.110;9.372;2023-02-17T15:56:39;9.625125382567058;;;9.75;100.0
15558;BME280;7880;50.110;9.372;2023-02-17T16:01:39;9.64025213457644;;;9.75;100.0
15558;BME280;7880;50.110;9.372;2023-02-17T16:06:43;9.645294385828311;;;9.75;100.0
15558;BME280;7880;50.110;9.372;2023-02-17T16:11:51;9.67050564645324;;;9.75;100.0
15558;BME280;7880;50.110;9.372;2023-02-17T16:16:57;9.695716914354126;;;9.812;100.0
15558;BME280;7880;50.110;9.372;2023-02-17T16:21:55;9.77135076171253;;;9.875;100.0
15558;BME280;7880;50.110;9.372;2023-02-17T16:27:04;9.7663085031847;;;9.875;100.0
15558;BME280;7880;50.110;9.372;2023-02-17T16:32:11;9.801604318991304;;;9.937;100.0
15558;BME280;7880;50.110;9.372;2023-02-17T16:37:15;9.7663085031847;;;9.875;100.0
15558;BME280;7880;50.110;9.372;2023-02-17T16:42:12;9.811688840412534;;;9.875;100.0
15558;BME280;7880;50.110;9.372;2023-02-17T16:47:18;9.877238258026773;;;9.937;100.0
15558;BME280;7880;50.110;9.372;2023-02-17T16:52:23;9.857069201214472;;;10.0;100.0
15558;BME280;7880;50.110;9.372;2023-02-17T16:57:25;9.857069201214472;;;9.937;100.0
15558;BME280;7880;50.110;9.372;2023-02-17T17:02:31;9.872195993387141;;;9.937;100.0
15558;BME280;7880;50.110;9.372;2023-02-17T17:07:37;9.846984674554552;;;9.937;100.0
15558;BME280;7880;50.110;9.372;2023-02-17T17:12:46;9.912534118653275;;;10.0;100.0
15558;BME280;7880;50.110;9.372;2023-02-17T17:17:50;9.927660920430208;;;10.0;100.0
15558;BME280;7880;50.110;9.372;2023-02-17T17:22:51;9.927660920430208;;;10.0;100.0
15558;BME280;7880;50.110;9.372;2023-02-17T17:27:57;9.902449585590512;;;10.062;100.0
15558;BME280;7880;50.110;9.372;2023-02-17T17:33:06;9.927660920430208;;;10.062;100.0
15558;BME280;7880;50.110;9.372;2023-02-17T17:38:04;9.897407319495688;;;10.0;100.0
15558;BME280;7880;50.110;9.372;2023-02-17T17:43:10;9.952872262545862;;;10.0;100.0
15558;BME280;7880;50.110;9.372;2023-02-17T17:48:13;9.902449585590512;;;10.0;100.0
15558;BME280;7880;50.110;9.372;2023-02-17T17:53:17;9.852026937738993;;;9.937;100.0
15558;BME280;7880;50.110;9.372;2023-02-17T17:58:21;9.897407319495688;;;10.0;100.0
15558;BME280;7880;50.110;9.372;2023-02-17T18:03:25;9.882280522957444;;;10.0;100.0
15558;BME280;7880;50.110;9.372;2023-02-17T18:08:29;9.932703188271262;;;10.0;100.0
15558;BME280;7880;50.110;9.372;2023-02-17T18:13:46;9.912534118653275;;;10.0;100.0
15558;BME280;7880;50.110;9.372;2023-02-17T18:18:39;9.947829993540655;;;10.062;100.0
15558;BME280;7880;50.110;9.372;2023-02-17T18:23:44;9.912534118653275;;;10.0;100.0
15558;BME280;7880;50.110;9.372;2023-02-17T18:29:06;9.912534118653275;;;10.0;100.0
15558;BME280;7880;50.110;9.372;2023-02-17T18:33:53;9.96295680142939;;;10.062;100.0
15558;BME280;7880;50.110;9.372;2023-02-17T18:38:58;9.917576385621214;;;10.0;100.0
15558;BME280;7880;50.110;9.372;2023-02-17T18:44:03;9.897407319495688;;;10.0;100.0
15558;BME280;7880;50.110;9.372;2023-02-17T18:49:10;9.82681562472717;;;9.937;100.0
15558;BME280;7880;50.110;9.372;2023-02-17T18:54:10;9.86211146498099;;;9.937;100.0
15558;BME280;7880;50.110;9.372;2023-02-17T18:59:16;9.8066465795564;;;9.875;100.0
15558;BME280;7880;50.110;9.372;2023-02-17T19:04:21;9.796562058717246;;;9.875;100.0
15558;BME280;7880;50.110;9.372;2023-02-17T19:09:30;9.776393020531396;;;9.875;100.0
15558;BME280;7880;50.110;9.372;2023-02-17T19:14:38;9.796562058717246;;;9.875;100.0
15558;BME280;7880;50.110;9.372;2023-02-17T19:19:36;9.82681562472717;;;9.937;100.0
15558;BME280;7880;50.110;9.372;2023-02-17T19:24:49;9.801604318991304;;;9.875;100.0
15558;BME280;7880;50.110;9.372;2023-02-17T19:29:43;9.816731101559707;;;9.937;100.0
15558;BME280;7880;50.110;9.372;2023-02-17T19:34:47;9.867153729038545;;;9.937;100.0
15558;BME280;7880;50.110;9.372;2023-02-17T19:39:52;9.841942411661147;;;9.937;100.0
15558;BME280;7880;50.110;9.372;2023-02-17T19:44:55;9.841942411661147;;;9.937;100.0
15558;BME280;7880;50.110;9.372;2023-02-17T19:49:59;9.852026937738993;;;9.937;100.0
15558;BME280;7880;50.110;9.372;2023-02-17T19:55:11;9.831857886747457;;;9.937;100.0
15558;BME280;7880;50.110;9.372;2023-02-17T20:00:11;9.7663085031847;;;9.875;100.0
15558;BME280;7880;50.110;9.372;2023-02-17T20:05:13;9.77135076171253;;;9.875;100.0
15558;BME280;7880;50.110;9.372;2023-02-17T20:10:22;9.736054958129534;;;9.812;100.0
15558;BME280;7880;50.110;9.372;2023-02-17T20:15:23;9.72092818953097;;;9.812;100.0
15558;BME280;7880;50.110;9.372;2023-02-17T20:20:35;9.685632406320655;;;9.812;100.0
15558;BME280;7880;50.110;9.372;2023-02-17T20:25:38;9.655378889205167;;;9.75;100.0
15558;BME280;7880;50.110;9.372;2023-02-17T20:30:36;9.625125382567058;;;9.687;100.0
15558;BME280;7880;50.110;9.372;2023-02-17T20:35:39;9.60999863317702;;;9.687;100.0
15558;BME280;7880;50.110;9.372;2023-02-17T20:40:52;9.594871886406327;;;9.625;100.0
15558;BME280;7880;50.110;9.372;2023-02-17T20:45:53;9.58478739001439;;;9.687;100.0
15558;BME280;7880;50.110;9.372;2023-02-17T20:50:57;9.60999863317702;;;9.687;100.0
15558;BME280;7880;50.110;9.372;2023-02-17T20:55:58;9.61504088268266;;;9.687;100.0
15558;BME280;7880;50.110;9.372;2023-02-17T21:01:04;9.559576154127717;;;9.625;100.0
15558;BME280;7880;50.110;9.372;2023-02-17T21:06:17;9.504111460788408;;;9.562;100.0
15558;BME280;7880;50.110;9.372;2023-02-17T21:11:11;9.458731283340603;;;9.5;100.0
15558;BME280;7880;50.110;9.372;2023-02-17T21:16:16;9.408308891602791;;;9.437;100.0
15558;BME280;7880;50.110;9.372;2023-02-17T21:21:19;9.362928763922536;;;9.375;100.0
15558;BME280;7880;50.110;9.372;2023-02-17T21:26:24;9.352844294306124;;;9.375;100.0
15558;BME280;7880;50.110;9.372;2023-02-17T21:31:29;9.322590892441804;;;9.375;100.0
15558;BME280;7880;50.110;9.372;2023-02-17T21:36:30;9.312506427482003;;;9.312;100.0
15558;BME280;7880;50.110;9.372;2023-02-17T21:41:39;9.29737973222509;;;9.312;100.0
15558;BME280;7880;50.110;9.372;2023-02-17T21:46:42;9.267126349569299;;;9.312;100.0
15558;BME280;7880;50.110;9.372;2023-02-17T21:51:44;9.302421963686356;;;9.312;100.0
15558;BME280;7880;50.110;9.372;2023-02-17T21:56:47;9.312506427482003;;;9.312;100.0
15558;BME280;7880;50.110;9.372;2023-02-17T22:01:53;9.327633125358261;;;9.375;100.0
15558;BME280;7880;50.110;9.372;2023-02-17T22:06:59;9.30746419543866;;;9.375;100.0
15558;BME280;7880;50.110;9.372;2023-02-17T22:12:02;9.267126349569299;;;9.312;100.0
15558;BME280;7880;50.110;9.372;2023-02-17T22:17:06;9.241915205359692;;;9.312;100.0
15558;BME280;7880;50.110;9.372;2023-02-17T22:22:09;9.201577389758313;;;9.25;100.0
15558;BME280;7880;50.110;9.372;2023-02-17T22:26:08;9.211661841912427;;;9.25;100.0
15558;BME280;7880;50.110;9.372;2023-02-17T22:31:11;9.211661841912427;;;9.25;100.0
15558;BME280;7880;50.110;9.372;2023-02-17T22:36:16;9.181408488942543;;;9.25;100.0
15558;BME280;7880;50.110;9.372;2023-02-17T22:41:24;9.186450713709927;;;9.187;100.0
15558;BME280;7880;50.110;9.372;2023-02-17T22:46:29;9.201577389758313;;;9.187;100.0
15558;BME280;7880;50.110;9.372;2023-02-17T22:51:33;9.221746295230696;;;9.25;100.0
15558;BME280;7880;50.110;9.372;2023-02-17T22:56:32;9.196535164117813;;;9.25;100.0
15558;BME280;7880;50.110;9.372;2023-02-17T23:01:37;9.211661841912427;;;9.25;100.0
15558;BME280;7880;50.110;9.372;2023-02-17T23:06:47;9.272168579284335;;;9.312;100.0
15558;BME280;7880;50.110;9.372;2023-02-17T23:12:00;9.277210809290409;;;9.312;100.0
15558;BME280;7880;50.110;9.372;2023-02-17T23:16:51;9.322590892441804;;;9.375;100.0
15558;BME280;7880;50.110;9.372;2023-02-17T23:22:03;9.342759825853864;;;9.375;100.0
15558;BME280;7880;50.110;9.372;2023-02-17T23:26:58;9.362928763922536;;;9.437;100.0
15558;BME280;7880;50.110;9.372;2023-02-17T23:32:04;9.38813994305674;;;9.437;100.0
15558;BME280;7880;50.110;9.372;2023-02-17T23:37:05;9.4133511294669;;;9.437;100.0
15558;BME280;7880;50.110;9.372;2023-02-17T23:42:08;9.408308891602791;;;9.5;100.0
15558;BME280;7880;50.110;9.372;2023-02-17T23:47:16;9.403266654029721;;;9.437;100.0
15558;BME280;7880;50.110;9.372;2023-02-17T23:52:14;9.378055470529944;;;9.437;100.0
15558;BME280;7880;50.110;9.372;2023-02-17T23:57:17;9.433520083833718;;;9.5;100.0
